Hobart, Australia
Current Conditions -  °F | °C
As of 1:30 PM on Thursday 18 Dec 2014 (Local Time) from YMHB Reporting Station
Overcast Overcast  
Wind Chill: 70°   Ceiling: 25000
Heat Index: 70°   Visibility: 6mi
Dew Point: 43°   Wind: 18mph
Humidity: 38%   Direction: 360°N
Pressure: 29.53"   Gusts: NA
Location:  42.88°S, 147.33°E
Report Text: YMHB 180230Z 36016KT 9999 FEW055 OVC250 21/06 Q1000
Loading
Personal Weather Stations






























Interactive Weather Map New forecast layout! Learn more

10-Day Weather Forecast

Advertisements
Track Severe Weather on mobile